createdAt,value
2022-08-31T00:00:07.563Z,1023.51
2022-08-31T00:00:16.981Z,1023.60
2022-08-31T00:00:26.408Z,1023.45
2022-08-31T00:00:35.813Z,1023.50
2022-08-31T00:00:45.248Z,1023.60
2022-08-31T00:00:54.676Z,1023.50
2022-08-31T00:01:04.057Z,1023.62
2022-08-31T00:01:13.510Z,1023.43
2022-08-31T00:01:22.907Z,1023.49
2022-08-31T00:01:32.288Z,1023.59
2022-08-31T00:01:41.734Z,1023.47
2022-08-31T00:01:51.183Z,1023.48
2022-08-31T00:02:00.601Z,1023.42
2022-08-31T00:02:19.723Z,1023.63
2022-08-31T00:02:29.066Z,1023.55
2022-08-31T00:02:38.439Z,1023.59
2022-08-31T00:02:47.744Z,1023.47
2022-08-31T00:02:57.213Z,1023.45
2022-08-31T00:03:06.634Z,1023.41
2022-08-31T00:03:16.275Z,1023.55
2022-08-31T00:03:25.614Z,1023.54
2022-08-31T00:03:35.037Z,1023.45
2022-08-31T00:03:44.450Z,1023.56
2022-08-31T00:03:53.869Z,1023.60
2022-08-31T00:04:03.626Z,1023.55
2022-08-31T00:04:12.751Z,1023.56
2022-08-31T00:04:22.174Z,1023.53
2022-08-31T00:04:31.633Z,1023.53
2022-08-31T00:04:40.980Z,1023.54
2022-08-31T00:04:59.825Z,1023.51
2022-08-31T00:05:09.206Z,1023.54
2022-08-31T00:05:18.623Z,1023.48
2022-08-31T00:05:28.057Z,1023.53
2022-08-31T00:05:37.470Z,1023.54
2022-08-31T00:05:46.905Z,1023.48
2022-08-31T00:05:56.307Z,1023.54
2022-08-31T00:06:05.742Z,1023.61
2022-08-31T00:06:15.194Z,1023.56
2022-08-31T00:06:24.604Z,1023.58
2022-08-31T00:06:34.064Z,1023.55
2022-08-31T00:06:43.502Z,1023.57
2022-08-31T00:06:53.778Z,1023.51
2022-08-31T00:07:02.290Z,1023.57
2022-08-31T00:07:11.712Z,1023.53
2022-08-31T00:07:21.128Z,1023.58
2022-08-31T00:07:40.341Z,1023.53
2022-08-31T00:07:49.395Z,1023.60
2022-08-31T00:07:58.803Z,1023.57
2022-08-31T00:08:08.247Z,1023.56
2022-08-31T00:08:17.657Z,1023.55
2022-08-31T00:08:27.079Z,1023.54
2022-08-31T00:08:36.498Z,1023.55
2022-08-31T00:08:45.919Z,1023.57
2022-08-31T00:08:55.351Z,1023.59
2022-08-31T00:09:04.794Z,1023.48
2022-08-31T00:09:14.223Z,1023.57
2022-08-31T00:09:23.644Z,1023.51
2022-08-31T00:09:33.068Z,1023.58
2022-08-31T00:09:42.515Z,1023.54
2022-08-31T00:09:51.929Z,1023.52
2022-08-31T00:10:01.391Z,1023.52
2022-08-31T00:10:10.819Z,1023.55
2022-08-31T00:10:32.966Z,1023.56
2022-08-31T00:10:39.073Z,1023.57
2022-08-31T00:10:48.492Z,1023.50
2022-08-31T00:10:57.911Z,1023.54
2022-08-31T00:11:07.337Z,1023.51
2022-08-31T00:11:16.777Z,1023.56
2022-08-31T00:11:26.200Z,1023.58
2022-08-31T00:11:35.788Z,1023.58
2022-08-31T00:11:45.193Z,1023.53
2022-08-31T00:11:54.621Z,1023.57
2022-08-31T00:12:04.032Z,1023.52
2022-08-31T00:12:13.440Z,1023.52
2022-08-31T00:12:22.858Z,1023.55
2022-08-31T00:12:32.263Z,1023.50
2022-08-31T00:12:41.664Z,1023.48
2022-08-31T00:12:51.107Z,1023.54
2022-08-31T00:13:10.039Z,1023.54
2022-08-31T00:13:19.488Z,1023.59
2022-08-31T00:13:28.791Z,1023.53
2022-08-31T00:13:38.244Z,1023.57
2022-08-31T00:13:47.679Z,1023.52
2022-08-31T00:13:57.164Z,1023.54
2022-08-31T00:14:06.574Z,1023.57
2022-08-31T00:14:16.116Z,1023.65
2022-08-31T00:14:25.540Z,1023.63
2022-08-31T00:14:34.973Z,1023.60
2022-08-31T00:14:44.462Z,1023.60
2022-08-31T00:14:53.881Z,1023.62
2022-08-31T00:15:03.291Z,1023.57
2022-08-31T00:15:12.704Z,1023.57
2022-08-31T00:15:25.652Z,1023.65
2022-08-31T00:15:31.653Z,1023.62
2022-08-31T00:15:41.214Z,1023.66
2022-08-31T00:15:50.800Z,1023.54
2022-08-31T00:16:09.705Z,1023.57
2022-08-31T00:16:19.583Z,1023.62
2022-08-31T00:16:28.931Z,1023.60
2022-08-31T00:16:38.419Z,1023.54
2022-08-31T00:16:47.809Z,1023.61
2022-08-31T00:16:57.204Z,1023.56
2022-08-31T00:17:06.590Z,1023.56
2022-08-31T00:17:16.023Z,1023.56
2022-08-31T00:17:25.522Z,1023.60
2022-08-31T00:17:34.968Z,1023.59
2022-08-31T00:17:44.424Z,1023.63
2022-08-31T00:17:53.850Z,1023.59
2022-08-31T00:18:03.254Z,1023.60
2022-08-31T00:18:12.716Z,1023.61
2022-08-31T00:18:22.146Z,1023.57
2022-08-31T00:18:31.566Z,1023.64
2022-08-31T00:18:40.979Z,1023.57
2022-08-31T00:18:59.788Z,1023.59
2022-08-31T00:19:09.209Z,1023.64
2022-08-31T00:19:18.624Z,1023.60
2022-08-31T00:19:28.034Z,1023.62
2022-08-31T00:19:37.462Z,1023.59
2022-08-31T00:19:46.890Z,1023.62
2022-08-31T00:19:56.322Z,1023.60
2022-08-31T00:20:05.726Z,1023.57
2022-08-31T00:20:32.336Z,1023.58
2022-08-31T00:20:33.989Z,1023.66
2022-08-31T00:20:34.682Z,1023.69
2022-08-31T00:20:43.426Z,1023.59
2022-08-31T00:20:52.849Z,1023.63
2022-08-31T00:21:02.257Z,1023.65
2022-08-31T00:21:11.683Z,1023.67
2022-08-31T00:21:21.144Z,1023.56
2022-08-31T00:21:30.563Z,1023.64
2022-08-31T00:21:49.366Z,1023.61
2022-08-31T00:21:58.783Z,1023.61
2022-08-31T00:22:08.190Z,1023.61
2022-08-31T00:22:17.669Z,1023.62
2022-08-31T00:22:27.094Z,1023.61
2022-08-31T00:22:36.520Z,1023.61
2022-08-31T00:22:45.929Z,1023.63
2022-08-31T00:22:55.340Z,1023.62
2022-08-31T00:23:04.817Z,1023.69
2022-08-31T00:23:14.272Z,1023.65
2022-08-31T00:23:23.650Z,1023.62
2022-08-31T00:23:33.063Z,1023.63
2022-08-31T00:23:42.466Z,1023.63
2022-08-31T00:23:51.878Z,1023.62
2022-08-31T00:24:01.314Z,1023.72
2022-08-31T00:24:10.729Z,1023.61
2022-08-31T00:24:29.558Z,1023.65
2022-08-31T00:24:38.947Z,1023.62
2022-08-31T00:24:48.360Z,1023.58
2022-08-31T00:24:57.775Z,1023.62
2022-08-31T00:25:07.206Z,1023.66
2022-08-31T00:25:16.633Z,1023.60
2022-08-31T00:25:26.063Z,1023.57
2022-08-31T00:25:35.477Z,1023.60
2022-08-31T00:25:44.884Z,1023.64
2022-08-31T00:25:54.278Z,1023.62
2022-08-31T00:26:03.736Z,1023.60
2022-08-31T00:26:13.162Z,1023.65
2022-08-31T00:26:22.584Z,1023.59
2022-08-31T00:26:32.027Z,1023.61
2022-08-31T00:26:41.451Z,1023.63
2022-08-31T00:26:50.916Z,1023.62
2022-08-31T00:27:09.734Z,1023.63
2022-08-31T00:27:19.142Z,1023.65
2022-08-31T00:27:28.555Z,1023.63
2022-08-31T00:27:37.971Z,1023.64
2022-08-31T00:27:47.367Z,1023.65
2022-08-31T00:27:56.784Z,1023.59
2022-08-31T00:28:06.206Z,1023.64
2022-08-31T00:28:15.621Z,1023.65
2022-08-31T00:28:25.082Z,1023.63
2022-08-31T00:28:34.506Z,1023.62
2022-08-31T00:28:43.927Z,1023.61
2022-08-31T00:28:53.340Z,1023.66
2022-08-31T00:29:02.762Z,1023.65
2022-08-31T00:29:12.207Z,1023.61
2022-08-31T00:29:21.643Z,1023.64
2022-08-31T00:29:31.106Z,1023.68
2022-08-31T00:29:49.935Z,1023.61
2022-08-31T00:29:59.363Z,1023.63
2022-08-31T00:30:08.778Z,1023.58
2022-08-31T00:30:18.255Z,1023.70
2022-08-31T00:30:27.656Z,1023.64
2022-08-31T00:30:37.083Z,1023.61
2022-08-31T00:30:46.494Z,1023.59
2022-08-31T00:30:55.913Z,1023.63
2022-08-31T00:31:05.376Z,1023.63
2022-08-31T00:31:14.831Z,1023.70
2022-08-31T00:31:24.312Z,1023.59
2022-08-31T00:31:33.778Z,1023.65
2022-08-31T00:31:43.205Z,1023.62
2022-08-31T00:31:52.618Z,1023.63
2022-08-31T00:32:02.051Z,1023.66
2022-08-31T00:32:11.506Z,1023.62
2022-08-31T00:32:21.380Z,1023.67
2022-08-31T00:32:39.753Z,1023.67
2022-08-31T00:32:49.171Z,1023.58
2022-08-31T00:32:58.769Z,1023.59
2022-08-31T00:33:08.017Z,1023.62
2022-08-31T00:33:17.683Z,1023.62
2022-08-31T00:33:26.918Z,1023.60
2022-08-31T00:33:36.354Z,1023.59
2022-08-31T00:33:45.766Z,1023.62
2022-08-31T00:33:55.210Z,1023.54
2022-08-31T00:34:04.607Z,1023.56
2022-08-31T00:34:14.027Z,1023.58
2022-08-31T00:34:23.479Z,1023.68
2022-08-31T00:34:32.941Z,1023.57
2022-08-31T00:34:42.325Z,1023.70
2022-08-31T00:34:51.752Z,1023.62
2022-08-31T00:35:01.168Z,1023.63
2022-08-31T00:35:10.583Z,1023.63
2022-08-31T00:35:29.494Z,1023.61
2022-08-31T00:35:38.925Z,1023.65
2022-08-31T00:35:48.342Z,1023.61
2022-08-31T00:35:57.762Z,1023.58
2022-08-31T00:36:07.214Z,1023.55
2022-08-31T00:36:16.655Z,1023.62
2022-08-31T00:36:26.095Z,1023.60
2022-08-31T00:36:35.527Z,1023.63
2022-08-31T00:36:44.959Z,1023.61
2022-08-31T00:36:54.377Z,1023.53
2022-08-31T00:37:04.023Z,1023.56
2022-08-31T00:37:13.432Z,1023.55
2022-08-31T00:37:22.856Z,1023.71
2022-08-31T00:37:32.258Z,1023.64
2022-08-31T00:37:41.658Z,1023.67
2022-08-31T00:37:51.056Z,1023.65
2022-08-31T00:38:09.894Z,1023.60
2022-08-31T00:38:19.319Z,1023.58
2022-08-31T00:38:28.734Z,1023.62
2022-08-31T00:38:38.156Z,1023.65
2022-08-31T00:38:47.573Z,1023.58
2022-08-31T00:38:57.020Z,1023.57
2022-08-31T00:39:06.414Z,1023.56
2022-08-31T00:39:15.839Z,1023.61
2022-08-31T00:39:25.260Z,1023.66
2022-08-31T00:39:34.682Z,1023.58
2022-08-31T00:39:44.101Z,1023.64
2022-08-31T00:39:53.519Z,1023.62
2022-08-31T00:40:02.965Z,1023.61
2022-08-31T00:40:12.416Z,1023.57
2022-08-31T00:40:21.892Z,1023.58
2022-08-31T00:40:31.325Z,1023.64
2022-08-31T00:40:45.000Z,1023.61
2022-08-31T00:40:59.567Z,1023.61
2022-08-31T00:41:08.991Z,1023.58
2022-08-31T00:41:18.407Z,1023.62
2022-08-31T00:41:27.858Z,1023.58
2022-08-31T00:41:37.288Z,1023.60
2022-08-31T00:41:46.747Z,1023.66
2022-08-31T00:41:56.194Z,1023.61
2022-08-31T00:42:05.619Z,1023.65
2022-08-31T00:42:15.051Z,1023.61
2022-08-31T00:42:24.496Z,1023.63
2022-08-31T00:42:33.952Z,1023.62
2022-08-31T00:42:43.366Z,1023.63
2022-08-31T00:42:52.793Z,1023.60
2022-08-31T00:43:02.209Z,1023.59
2022-08-31T00:43:11.634Z,1023.61
2022-08-31T00:43:21.150Z,1023.68
2022-08-31T00:43:30.576Z,1023.68
2022-08-31T00:43:49.427Z,1023.65
2022-08-31T00:43:58.845Z,1023.64
2022-08-31T00:44:08.260Z,1023.69
2022-08-31T00:44:17.651Z,1023.66
2022-08-31T00:44:27.102Z,1023.63
2022-08-31T00:44:36.521Z,1023.62
2022-08-31T00:44:46.047Z,1023.66
2022-08-31T00:44:55.497Z,1023.60
2022-08-31T00:45:04.923Z,1023.70
2022-08-31T00:45:14.341Z,1023.70
2022-08-31T00:45:24.334Z,1023.66
2022-08-31T00:45:33.219Z,1023.65
2022-08-31T00:45:42.669Z,1023.69
2022-08-31T00:45:52.087Z,1023.67
2022-08-31T00:46:01.503Z,1023.66
2022-08-31T00:46:11.120Z,1023.66
2022-08-31T00:46:29.708Z,1023.64
2022-08-31T00:46:39.130Z,1023.64
2022-08-31T00:46:48.564Z,1023.63
2022-08-31T00:46:57.970Z,1023.68
2022-08-31T00:47:07.393Z,1023.72
2022-08-31T00:47:16.878Z,1023.69
2022-08-31T00:47:26.260Z,1023.72
2022-08-31T00:47:35.653Z,1023.66
2022-08-31T00:47:45.075Z,1023.67
2022-08-31T00:47:54.499Z,1023.68
2022-08-31T00:48:03.918Z,1023.70
2022-08-31T00:48:13.339Z,1023.68
2022-08-31T00:48:22.762Z,1023.69
2022-08-31T00:48:32.164Z,1023.68
2022-08-31T00:48:41.599Z,1023.73
2022-08-31T00:48:51.024Z,1023.69
2022-08-31T00:49:09.828Z,1023.64
2022-08-31T00:49:19.222Z,1023.64
2022-08-31T00:49:28.659Z,1023.62
2022-08-31T00:49:38.080Z,1023.66
2022-08-31T00:49:47.476Z,1023.76
2022-08-31T00:49:56.876Z,1023.61
2022-08-31T00:50:06.290Z,1023.68
2022-08-31T00:50:15.690Z,1023.60
2022-08-31T00:50:25.099Z,1023.63
2022-08-31T00:50:34.485Z,1023.57
2022-08-31T00:50:43.906Z,1023.63
2022-08-31T00:50:53.323Z,1023.59
2022-08-31T00:51:02.745Z,1023.56
2022-08-31T00:51:12.164Z,1023.58
2022-08-31T00:51:21.583Z,1023.66
2022-08-31T00:51:31.074Z,1023.56
2022-08-31T00:51:49.861Z,1023.60
2022-08-31T00:51:59.279Z,1023.59
2022-08-31T00:52:08.694Z,1023.62
2022-08-31T00:52:18.112Z,1023.59
2022-08-31T00:52:27.508Z,1023.54
2022-08-31T00:52:37.668Z,1023.59
2022-08-31T00:52:46.376Z,1023.59
2022-08-31T00:52:55.786Z,1023.58
2022-08-31T00:53:05.215Z,1023.57
2022-08-31T00:53:14.639Z,1023.56
2022-08-31T00:53:24.055Z,1023.59
2022-08-31T00:53:33.500Z,1023.58
2022-08-31T00:53:42.902Z,1023.62
2022-08-31T00:53:52.317Z,1023.57
2022-08-31T00:54:01.744Z,1023.57
2022-08-31T00:54:11.187Z,1023.61
2022-08-31T00:54:20.585Z,1023.63
2022-08-31T00:54:39.469Z,1023.65
2022-08-31T00:54:48.939Z,1023.63
2022-08-31T00:54:58.358Z,1023.56
2022-08-31T00:55:07.756Z,1023.59
2022-08-31T00:55:17.155Z,1023.62
2022-08-31T00:55:26.581Z,1023.65
2022-08-31T00:55:36.001Z,1023.59
2022-08-31T00:55:45.420Z,1023.61
2022-08-31T00:55:54.820Z,1023.64
2022-08-31T00:56:04.214Z,1023.64
2022-08-31T00:56:13.634Z,1023.61
2022-08-31T00:56:23.042Z,1023.65
2022-08-31T00:56:32.489Z,1023.64
2022-08-31T00:56:41.893Z,1023.63
2022-08-31T00:56:51.316Z,1023.60
2022-08-31T00:57:00.729Z,1023.65
2022-08-31T00:57:20.892Z,1023.61
2022-08-31T00:57:34.067Z,1023.72
2022-08-31T00:57:38.333Z,1023.59
2022-08-31T00:57:47.741Z,1023.61
2022-08-31T00:57:57.127Z,1023.63
2022-08-31T00:58:06.525Z,1023.67
2022-08-31T00:58:15.905Z,1023.68
2022-08-31T00:58:25.313Z,1023.67
2022-08-31T00:58:34.745Z,1023.71
2022-08-31T00:58:44.152Z,1023.64
2022-08-31T00:58:54.359Z,1023.67
2022-08-31T00:59:02.993Z,1023.62
2022-08-31T00:59:12.428Z,1023.67
2022-08-31T00:59:21.849Z,1023.65
2022-08-31T00:59:31.263Z,1023.67
2022-08-31T00:59:40.699Z,1023.68
2022-08-31T00:59:59.492Z,1023.63
2022-08-31T01:00:08.927Z,1023.66
2022-08-31T01:00:18.401Z,1023.63
2022-08-31T01:00:27.857Z,1023.67
2022-08-31T01:00:37.387Z,1023.64
2022-08-31T01:00:46.871Z,1023.64
2022-08-31T01:00:56.268Z,1023.67
2022-08-31T01:01:05.704Z,1023.68
2022-08-31T01:01:15.095Z,1023.67
2022-08-31T01:01:24.682Z,1023.57
2022-08-31T01:01:34.013Z,1023.68
2022-08-31T01:01:43.428Z,1023.63
2022-08-31T01:01:52.762Z,1023.67
2022-08-31T01:02:02.267Z,1023.61
2022-08-31T01:02:11.673Z,1023.70
2022-08-31T01:02:21.085Z,1023.63
2022-08-31T01:02:39.941Z,1023.68
2022-08-31T01:02:49.294Z,1023.63
2022-08-31T01:02:58.711Z,1023.64
2022-08-31T01:03:08.121Z,1023.69
2022-08-31T01:03:17.770Z,1023.66
2022-08-31T01:03:26.948Z,1023.73
2022-08-31T01:03:36.352Z,1023.71
2022-08-31T01:03:45.810Z,1023.73
2022-08-31T01:03:55.219Z,1023.68
2022-08-31T01:04:04.713Z,1023.66
2022-08-31T01:04:14.111Z,1023.68
2022-08-31T01:04:23.505Z,1023.63
2022-08-31T01:04:32.961Z,1023.72
2022-08-31T01:04:42.397Z,1023.65
2022-08-31T01:04:51.811Z,1023.64
2022-08-31T01:05:01.214Z,1023.70
2022-08-31T01:05:10.623Z,1023.64
2022-08-31T01:05:29.581Z,1023.64
2022-08-31T01:05:39.007Z,1023.73
2022-08-31T01:05:48.410Z,1023.68
2022-08-31T01:05:57.806Z,1023.66
2022-08-31T01:06:07.207Z,1023.77
2022-08-31T01:06:16.645Z,1023.71
2022-08-31T01:06:26.060Z,1023.65
2022-08-31T01:06:35.560Z,1023.72
2022-08-31T01:06:44.979Z,1023.77
2022-08-31T01:06:54.379Z,1023.79
2022-08-31T01:07:03.790Z,1023.72
2022-08-31T01:07:13.186Z,1023.72
2022-08-31T01:07:22.605Z,1023.75
2022-08-31T01:07:32.014Z,1023.69
2022-08-31T01:07:41.414Z,1023.74
2022-08-31T01:07:50.863Z,1023.70
2022-08-31T01:08:09.708Z,1023.68
2022-08-31T01:08:19.125Z,1023.80
2022-08-31T01:08:30.976Z,1023.81
2022-08-31T01:08:37.995Z,1023.77
2022-08-31T01:08:47.394Z,1023.76
2022-08-31T01:08:56.796Z,1023.79
2022-08-31T01:09:06.233Z,1023.82
2022-08-31T01:09:15.651Z,1023.76
2022-08-31T01:09:25.056Z,1023.78
2022-08-31T01:09:34.455Z,1023.74
2022-08-31T01:09:45.070Z,1023.75
2022-08-31T01:09:55.852Z,1023.74
2022-08-31T01:10:02.750Z,1023.73
2022-08-31T01:10:12.162Z,1023.74
2022-08-31T01:10:21.632Z,1023.78
2022-08-31T01:10:31.044Z,1023.79
2022-08-31T01:10:49.875Z,1023.79
2022-08-31T01:10:59.301Z,1023.76
2022-08-31T01:11:08.773Z,1023.83
2022-08-31T01:11:18.181Z,1023.80
2022-08-31T01:11:27.599Z,1023.74
2022-08-31T01:11:37.117Z,1023.69
2022-08-31T01:11:46.517Z,1023.75
2022-08-31T01:11:55.966Z,1023.78
2022-08-31T01:12:07.314Z,1023.72
2022-08-31T01:12:14.780Z,1023.80
2022-08-31T01:12:24.191Z,1023.78
2022-08-31T01:12:33.615Z,1023.76
2022-08-31T01:12:43.025Z,1023.79
2022-08-31T01:12:52.452Z,1023.80
2022-08-31T01:13:01.879Z,1023.75
2022-08-31T01:13:11.311Z,1023.80
2022-08-31T01:13:20.724Z,1023.77
2022-08-31T01:13:39.582Z,1023.78
2022-08-31T01:13:49.017Z,1023.83
2022-08-31T01:13:58.433Z,1023.77
2022-08-31T01:14:07.844Z,1023.78
2022-08-31T01:14:17.255Z,1023.80
2022-08-31T01:14:26.658Z,1023.78
2022-08-31T01:14:36.103Z,1023.76
2022-08-31T01:14:45.515Z,1023.76
2022-08-31T01:14:54.946Z,1023.83
2022-08-31T01:15:04.362Z,1023.80
2022-08-31T01:15:13.743Z,1023.76
2022-08-31T01:15:23.170Z,1023.80
2022-08-31T01:15:32.586Z,1023.83
2022-08-31T01:15:42.029Z,1023.81
2022-08-31T01:15:51.450Z,1023.79
2022-08-31T01:16:00.941Z,1023.82
2022-08-31T01:16:19.858Z,1023.83
2022-08-31T01:16:29.305Z,1023.83
2022-08-31T01:16:38.671Z,1023.82
2022-08-31T01:16:48.024Z,1023.76
2022-08-31T01:16:57.403Z,1023.76
2022-08-31T01:17:06.815Z,1023.81
2022-08-31T01:17:16.245Z,1023.79
2022-08-31T01:17:25.660Z,1023.82
2022-08-31T01:17:35.097Z,1023.82
2022-08-31T01:17:44.513Z,1023.82
2022-08-31T01:17:53.944Z,1023.81
2022-08-31T01:18:03.346Z,1023.78
2022-08-31T01:18:12.776Z,1023.78
2022-08-31T01:18:22.170Z,1023.80
2022-08-31T01:18:31.594Z,1023.83
2022-08-31T01:18:41.080Z,1023.80
2022-08-31T01:18:59.901Z,1023.83
2022-08-31T01:19:09.385Z,1023.78
2022-08-31T01:19:18.811Z,1023.75
2022-08-31T01:19:28.229Z,1023.79
2022-08-31T01:19:37.657Z,1023.81
2022-08-31T01:19:47.111Z,1023.79
2022-08-31T01:19:56.504Z,1023.79
2022-08-31T01:20:05.919Z,1023.80
2022-08-31T01:20:15.352Z,1023.75
2022-08-31T01:20:24.759Z,1023.78
2022-08-31T01:20:34.203Z,1023.84
2022-08-31T01:20:48.586Z,1023.72
2022-08-31T01:20:53.023Z,1023.80
2022-08-31T01:21:02.419Z,1023.79
2022-08-31T01:21:11.846Z,1023.78
2022-08-31T01:21:21.297Z,1023.85
2022-08-31T01:21:30.734Z,1023.79
2022-08-31T01:21:49.696Z,1023.78
2022-08-31T01:21:59.123Z,1023.92
2022-08-31T01:22:08.536Z,1023.81
2022-08-31T01:22:17.955Z,1023.83
2022-08-31T01:22:27.387Z,1023.73
2022-08-31T01:22:36.792Z,1023.85
2022-08-31T01:22:46.245Z,1023.78
2022-08-31T01:22:55.667Z,1023.83
2022-08-31T01:23:05.087Z,1023.84
2022-08-31T01:23:14.514Z,1023.80
2022-08-31T01:23:23.926Z,1023.82
2022-08-31T01:23:33.359Z,1023.86
2022-08-31T01:23:42.768Z,1023.80
2022-08-31T01:23:52.159Z,1023.85
2022-08-31T01:24:01.570Z,1023.80
2022-08-31T01:24:10.988Z,1023.91
2022-08-31T01:24:29.815Z,1023.83
2022-08-31T01:24:39.269Z,1023.83
2022-08-31T01:24:48.733Z,1023.80
2022-08-31T01:24:58.127Z,1023.85
2022-08-31T01:25:07.553Z,1023.91
2022-08-31T01:25:16.949Z,1023.86
2022-08-31T01:25:33.564Z,1023.88
2022-08-31T01:25:35.787Z,1023.87
2022-08-31T01:25:45.218Z,1023.81
2022-08-31T01:25:54.619Z,1023.87
2022-08-31T01:26:04.057Z,1023.80
2022-08-31T01:26:13.488Z,1023.85
2022-08-31T01:26:22.899Z,1023.86
2022-08-31T01:26:32.297Z,1023.89
2022-08-31T01:26:41.742Z,1023.88
2022-08-31T01:26:55.687Z,1023.86
2022-08-31T01:27:00.583Z,1023.84
2022-08-31T01:27:19.407Z,1023.84
2022-08-31T01:27:28.809Z,1023.84
2022-08-31T01:27:38.223Z,1023.84
2022-08-31T01:27:47.645Z,1023.84
2022-08-31T01:27:57.062Z,1023.89
2022-08-31T01:28:06.489Z,1023.83
2022-08-31T01:28:15.890Z,1023.83
2022-08-31T01:28:25.299Z,1023.82
2022-08-31T01:28:34.782Z,1023.81
2022-08-31T01:28:44.191Z,1023.79
2022-08-31T01:28:53.603Z,1023.83
2022-08-31T01:29:03.071Z,1023.86
2022-08-31T01:29:12.484Z,1023.83
2022-08-31T01:29:21.952Z,1023.77
2022-08-31T01:29:31.420Z,1023.77
2022-08-31T01:29:40.857Z,1023.77
2022-08-31T01:29:59.664Z,1023.77
2022-08-31T01:30:09.069Z,1023.73
2022-08-31T01:30:18.479Z,1023.82
2022-08-31T01:30:27.909Z,1023.76
2022-08-31T01:30:37.309Z,1023.77
2022-08-31T01:30:46.728Z,1023.78
2022-08-31T01:30:56.152Z,1023.78
2022-08-31T01:31:05.648Z,1023.75
2022-08-31T01:31:14.997Z,1023.75
2022-08-31T01:31:24.469Z,1023.73
2022-08-31T01:31:34.381Z,1023.72
2022-08-31T01:31:43.377Z,1023.77
2022-08-31T01:31:58.036Z,1023.78
2022-08-31T01:32:07.290Z,1023.71
2022-08-31T01:32:16.699Z,1023.75
2022-08-31T01:32:26.115Z,1023.79
2022-08-31T01:32:35.514Z,1023.82
2022-08-31T01:32:44.930Z,1023.78
2022-08-31T01:32:54.354Z,1023.73
2022-08-31T01:33:03.777Z,1023.78
2022-08-31T01:33:13.366Z,1023.76
2022-08-31T01:33:22.655Z,1023.73
2022-08-31T01:33:32.074Z,1023.73
2022-08-31T01:33:41.561Z,1023.77
2022-08-31T01:33:50.993Z,1023.83
2022-08-31T01:34:09.878Z,1023.77
2022-08-31T01:34:19.380Z,1023.79
2022-08-31T01:34:28.806Z,1023.85
2022-08-31T01:34:38.220Z,1023.81
2022-08-31T01:34:47.609Z,1023.81
2022-08-31T01:34:57.057Z,1023.79
2022-08-31T01:35:06.481Z,1023.82
2022-08-31T01:35:15.892Z,1023.86
2022-08-31T01:35:25.323Z,1023.79
2022-08-31T01:35:34.740Z,1023.87
2022-08-31T01:35:44.167Z,1023.91
2022-08-31T01:35:53.575Z,1023.82
2022-08-31T01:36:02.972Z,1023.88
2022-08-31T01:36:15.967Z,1023.85
2022-08-31T01:36:21.819Z,1023.87
2022-08-31T01:36:31.231Z,1023.89
2022-08-31T01:36:40.642Z,1023.84
2022-08-31T01:36:59.483Z,1023.86
2022-08-31T01:37:08.910Z,1023.83
2022-08-31T01:37:18.420Z,1023.83
2022-08-31T01:37:29.135Z,1023.87
2022-08-31T01:37:37.232Z,1023.85
2022-08-31T01:37:46.663Z,1023.84
2022-08-31T01:37:56.086Z,1023.90
2022-08-31T01:38:05.469Z,1023.82
2022-08-31T01:38:14.868Z,1023.92
2022-08-31T01:38:24.282Z,1023.89
2022-08-31T01:38:33.719Z,1023.82
2022-08-31T01:38:43.132Z,1023.80
2022-08-31T01:38:52.836Z,1023.88
2022-08-31T01:39:02.003Z,1023.86
2022-08-31T01:39:11.460Z,1023.83
2022-08-31T01:39:20.951Z,1023.80
2022-08-31T01:39:39.785Z,1023.85
2022-08-31T01:39:49.203Z,1023.79
2022-08-31T01:39:58.687Z,1023.82
2022-08-31T01:40:08.092Z,1023.79
2022-08-31T01:40:17.549Z,1023.83
2022-08-31T01:40:26.967Z,1023.83
2022-08-31T01:40:36.412Z,1023.85
2022-08-31T01:40:45.834Z,1023.80
2022-08-31T01:40:55.144Z,1023.86
2022-08-31T01:41:04.625Z,1023.85
2022-08-31T01:41:14.011Z,1023.83
2022-08-31T01:41:23.425Z,1023.87
2022-08-31T01:41:32.836Z,1023.81
2022-08-31T01:41:42.285Z,1023.90
2022-08-31T01:41:51.727Z,1023.86
2022-08-31T01:42:01.132Z,1023.82
2022-08-31T01:42:10.597Z,1023.91
2022-08-31T01:42:33.173Z,1023.86
2022-08-31T01:42:38.850Z,1023.85
2022-08-31T01:42:48.280Z,1023.84
2022-08-31T01:42:57.696Z,1023.82
2022-08-31T01:43:07.114Z,1023.89
2022-08-31T01:43:16.738Z,1023.82
2022-08-31T01:43:26.023Z,1023.82
2022-08-31T01:43:35.445Z,1023.86
2022-08-31T01:43:44.838Z,1023.80
2022-08-31T01:43:54.236Z,1023.85
2022-08-31T01:44:03.666Z,1023.83
2022-08-31T01:44:13.080Z,1023.78
2022-08-31T01:44:22.484Z,1023.87
2022-08-31T01:44:31.903Z,1023.86
2022-08-31T01:44:41.325Z,1023.85
2022-08-31T01:44:50.753Z,1023.84
2022-08-31T01:45:09.582Z,1023.88
2022-08-31T01:45:19.009Z,1023.83
2022-08-31T01:45:28.414Z,1023.86
2022-08-31T01:45:37.826Z,1023.83
2022-08-31T01:45:47.237Z,1023.79
2022-08-31T01:45:56.661Z,1023.85
2022-08-31T01:46:06.069Z,1023.83
2022-08-31T01:46:15.583Z,1023.83
2022-08-31T01:46:24.918Z,1023.84
2022-08-31T01:46:34.450Z,1023.82
2022-08-31T01:46:43.814Z,1023.83
2022-08-31T01:46:53.235Z,1023.80
2022-08-31T01:47:02.747Z,1023.85
2022-08-31T01:47:12.089Z,1023.87
2022-08-31T01:47:21.518Z,1023.84
2022-08-31T01:47:30.940Z,1023.83
2022-08-31T01:47:49.806Z,1023.78
2022-08-31T01:47:59.229Z,1023.80
2022-08-31T01:48:08.661Z,1023.78
2022-08-31T01:48:18.069Z,1023.88
2022-08-31T01:48:27.500Z,1023.79
2022-08-31T01:48:36.908Z,1023.86
2022-08-31T01:48:46.341Z,1023.80
2022-08-31T01:48:55.751Z,1023.88
2022-08-31T01:49:05.171Z,1023.80
2022-08-31T01:49:14.673Z,1023.81
2022-08-31T01:49:24.085Z,1023.85
2022-08-31T01:49:33.503Z,1023.80
2022-08-31T01:49:42.932Z,1023.84
2022-08-31T01:49:52.425Z,1023.91
2022-08-31T01:50:01.806Z,1023.84
2022-08-31T01:50:11.235Z,1023.89
2022-08-31T01:50:20.744Z,1023.88
2022-08-31T01:50:39.590Z,1023.81
2022-08-31T01:50:49.007Z,1023.83
2022-08-31T01:50:58.445Z,1023.86
2022-08-31T01:51:07.847Z,1023.88
2022-08-31T01:51:17.255Z,1023.83
2022-08-31T01:51:26.661Z,1023.87
2022-08-31T01:51:36.109Z,1023.83
2022-08-31T01:51:45.564Z,1023.85
2022-08-31T01:51:54.998Z,1023.87
2022-08-31T01:52:04.431Z,1023.88
2022-08-31T01:52:13.852Z,1023.82
2022-08-31T01:52:23.288Z,1023.82
2022-08-31T01:52:32.716Z,1023.84
2022-08-31T01:52:42.144Z,1023.83
2022-08-31T01:52:51.550Z,1023.83
2022-08-31T01:53:00.949Z,1023.83
2022-08-31T01:53:19.972Z,1023.88
2022-08-31T01:53:29.190Z,1023.93
2022-08-31T01:53:38.618Z,1023.84
2022-08-31T01:53:48.468Z,1023.85
2022-08-31T01:53:57.435Z,1023.87
2022-08-31T01:54:06.849Z,1023.87
2022-08-31T01:54:16.268Z,1023.87
2022-08-31T01:54:25.690Z,1023.87
2022-08-31T01:54:35.109Z,1023.84
2022-08-31T01:54:44.519Z,1023.92
2022-08-31T01:54:53.956Z,1023.88
2022-08-31T01:55:03.374Z,1023.91
2022-08-31T01:55:12.766Z,1023.86
2022-08-31T01:55:22.201Z,1023.81
2022-08-31T01:55:31.613Z,1023.87
2022-08-31T01:55:41.024Z,1023.89
2022-08-31T01:55:59.864Z,1023.94
2022-08-31T01:56:09.267Z,1023.87
2022-08-31T01:56:18.676Z,1023.91
2022-08-31T01:56:28.091Z,1023.93
2022-08-31T01:56:37.481Z,1023.91
2022-08-31T01:56:46.900Z,1023.91
2022-08-31T01:56:56.358Z,1023.89
2022-08-31T01:57:05.775Z,1023.96
2022-08-31T01:57:15.194Z,1023.85
2022-08-31T01:57:33.442Z,1023.96
2022-08-31T01:57:34.668Z,1023.96
2022-08-31T01:57:43.426Z,1023.85
2022-08-31T01:57:52.836Z,1023.93
2022-08-31T01:58:02.241Z,1023.91
2022-08-31T01:58:11.673Z,1023.88
2022-08-31T01:58:21.067Z,1023.92
2022-08-31T01:58:39.934Z,1023.88
2022-08-31T01:58:49.341Z,1023.84
2022-08-31T01:58:58.735Z,1023.86
2022-08-31T01:59:08.513Z,1023.92
2022-08-31T01:59:17.619Z,1023.91
2022-08-31T01:59:27.067Z,1023.83
2022-08-31T01:59:36.472Z,1023.85
2022-08-31T01:59:45.873Z,1023.92
2022-08-31T01:59:55.319Z,1023.95
2022-08-31T02:00:04.728Z,1023.85
2022-08-31T02:00:14.189Z,1023.91
2022-08-31T02:00:23.617Z,1023.86
2022-08-31T02:00:33.084Z,1023.86
2022-08-31T02:00:42.510Z,1023.87
2022-08-31T02:00:51.947Z,1023.87